Time;durP1;ratioP1;P1;durP2;ratioP2;P2;SDS_P1;SDS_P2;PMS_P1;PMS_P2;Temp;Humidity;BMP_temperature;BMP_pressure;BME280_temperature;BME280_humidity;BME280_pressure;Samples;Min_cycle;Max_cycle;Signal;HPM_P1;HPM_P2
2022/11/03 00:02:05;;;;;;;9.70;4.72;;;;;;;14.96;71.74;100672.66;5037154;28;20056;-64
2022/11/03 00:04:32;;;;;;;11.13;4.33;;;;;;;14.94;72.18;100672.97;5044104;28;20098;-63
2022/11/03 00:06:58;;;;;;;10.85;4.72;;;;;;;14.95;72.41;100673.81;5041910;28;20415;-64
2022/11/03 00:09:26;;;;;;;9.77;4.18;;;;;;;14.92;72.97;100664.81;5031765;28;20052;-64
2022/11/03 00:11:53;;;;;;;8.67;4.53;;;;;;;14.91;73.51;100660.34;5045940;28;20110;-64
2022/11/03 00:14:20;;;;;;;7.13;4.90;;;;;;;14.81;74.37;100654.91;5041945;28;20512;-64
2022/11/03 00:16:47;;;;;;;5.95;4.05;;;;;;;14.74;74.79;100659.25;5036564;28;20064;-64
2022/11/03 00:19:15;;;;;;;4.13;3.70;;;;;;;14.65;75.75;100659.94;5053803;28;20067;-63
2022/11/03 00:21:44;;;;;;;8.10;4.23;;;;;;;14.60;76.12;100653.56;5043667;28;20064;-64
2022/11/03 00:24:11;;;;;;;7.17;4.77;;;;;;;14.60;76.51;100650.75;5047383;28;20056;-64
2022/11/03 00:26:38;;;;;;;11.60;4.40;;;;;;;14.58;76.84;100658.66;5047339;28;20046;-64
2022/11/03 00:29:08;;;;;;;12.03;5.50;;;;;;;14.61;76.75;100652.41;5036376;28;20057;-65
2022/11/03 00:31:37;;;;;;;11.05;4.57;;;;;;;14.64;76.84;100657.44;5035147;28;20063;-65
2022/11/03 00:34:06;;;;;;;5.53;3.77;;;;;;;14.59;76.63;100657.50;5040150;28;20515;-64
2022/11/03 00:36:43;;;;;;;9.60;4.97;;;;;;;14.24;77.55;100654.06;5038562;28;20057;-64
2022/11/03 00:39:11;;;;;;;10.13;5.90;;;;;;;14.12;78.17;100648.91;5035540;28;20075;-64
2022/11/03 00:41:39;;;;;;;9.60;5.90;;;;;;;13.95;78.96;100642.97;5039212;28;20049;-65
2022/11/03 00:44:07;;;;;;;6.53;4.60;;;;;;;13.85;79.27;100627.09;5039593;28;20065;-65
2022/11/03 00:46:34;;;;;;;10.47;6.47;;;;;;;13.74;79.42;100623.56;5039841;28;20045;-65
2022/11/03 00:49:03;;;;;;;12.40;6.40;;;;;;;13.77;80.11;100629.69;5037344;28;20397;-64
2022/11/03 00:51:32;;;;;;;6.07;4.60;;;;;;;13.79;80.70;100635.88;5043637;28;20048;-64
2022/11/03 00:54:02;;;;;;;12.77;5.03;;;;;;;13.77;80.97;100638.94;5040360;28;20056;-64
2022/11/03 00:56:37;;;;;;;9.97;6.03;;;;;;;13.80;81.10;100629.09;5047255;28;20491;-64
2022/11/03 00:59:06;;;;;;;8.40;6.07;;;;;;;13.82;81.65;100632.47;5038422;28;20065;-65
2022/11/03 01:01:41;;;;;;;10.43;5.60;;;;;;;13.78;82.14;100629.41;5042726;28;21527;-65
2022/11/03 01:06:59;;;;;;;11.93;7.60;;;;;;;13.78;83.62;100618.19;5044949;28;20057;-64
2022/11/03 01:09:33;;;;;;;14.70;7.60;;;;;;;13.79;84.28;100614.25;5044592;28;20415;-65
2022/11/03 01:12:05;;;;;;;9.90;9.00;;;;;;;13.81;84.70;100602.69;5044399;28;20053;-64
2022/11/03 01:14:42;;;;;;;10.03;9.23;;;;;;;13.78;85.61;100609.78;5041180;28;20048;-67
2022/11/03 01:17:15;;;;;;;11.60;10.00;;;;;;;13.85;85.47;100606.59;5035847;28;20049;-65
2022/11/03 01:19:42;;;;;;;9.77;9.07;;;;;;;13.88;85.89;100595.59;5041656;28;20061;-65
2022/11/03 01:22:10;;;;;;;14.13;12.87;;;;;;;13.97;86.01;100601.34;5034669;28;20407;-65
2022/11/03 01:24:39;;;;;;;14.50;11.70;;;;;;;13.99;86.19;100591.50;5037748;28;20437;-65
2022/11/03 01:27:06;;;;;;;11.80;10.17;;;;;;;14.04;86.15;100599.00;5038576;28;20567;-63
2022/11/03 01:29:33;;;;;;;10.13;9.13;;;;;;;14.05;86.28;100605.47;5034961;28;20423;-64
2022/11/03 01:32:00;;;;;;;10.43;8.47;;;;;;;14.03;86.33;100594.53;5037816;28;20500;-64
2022/11/03 01:34:27;;;;;;;9.40;8.50;;;;;;;14.07;86.28;100603.19;5033541;28;20128;-63
2022/11/03 01:36:53;;;;;;;16.07;9.33;;;;;;;14.09;85.97;100600.94;5034002;28;20492;-63
2022/11/03 01:39:20;;;;;;;12.10;8.77;;;;;;;14.11;85.89;100581.78;5032067;28;20048;-64
2022/11/03 01:41:50;;;;;;;13.40;9.83;;;;;;;14.10;85.68;100572.53;5032566;28;20061;-64
2022/11/03 01:44:17;;;;;;;8.85;7.03;;;;;;;14.06;86.04;100585.50;5042989;28;20100;-64
2022/11/03 01:46:48;;;;;;;16.30;12.60;;;;;;;14.07;85.84;100580.72;5035423;28;20076;-65
2022/11/03 01:49:30;;;;;;;6.97;6.23;;;;;;;13.94;86.31;100576.69;5030703;28;20307;-64
2022/11/03 01:52:35;;;;;;;14.80;8.20;;;;;;;13.80;86.62;100576.59;5032067;28;20053;-65
2022/11/03 01:55:14;;;;;;;9.60;8.67;;;;;;;13.73;87.30;100571.38;5034760;28;20053;-64
2022/11/03 01:57:48;;;;;;;13.37;11.93;;;;;;;13.70;87.98;100557.94;5039209;28;20496;-64
2022/11/03 02:00:15;;;;;;;12.37;11.60;;;;;;;13.71;88.14;100555.97;5041086;28;20045;-66
2022/11/03 02:02:43;;;;;;;14.27;13.13;;;;;;;13.71;88.40;100561.59;5041411;28;20408;-68
2022/11/03 02:05:12;;;;;;;15.33;13.87;;;;;;;13.72;88.68;100560.44;5041014;28;20408;-66
2022/11/03 02:07:48;;;;;;;13.77;12.88;;;;;;;13.71;88.34;100561.59;5036119;28;20334;-65
2022/11/03 02:10:16;;;;;;;14.13;12.87;;;;;;;13.73;88.70;100562.94;5042707;28;20060;-64
2022/11/03 02:12:43;;;;;;;15.77;14.23;;;;;;;13.81;88.85;100561.47;5035167;28;20060;-64
2022/11/03 02:15:15;;;;;;;15.67;14.37;;;;;;;13.81;88.89;100552.19;5039645;28;20048;-65
2022/11/03 02:17:45;;;;;;;16.00;14.60;;;;;;;13.91;88.93;100566.06;5047200;28;20404;-63
2022/11/03 02:20:19;;;;;;;15.23;13.55;;;;;;;13.84;88.78;100549.59;5031664;28;20068;-64
2022/11/03 02:22:52;;;;;;;15.63;14.00;;;;;;;13.95;88.37;100564.34;5045921;28;20503;-66
2022/11/03 02:25:34;;;;;;;15.17;13.73;;;;;;;13.92;88.65;100548.94;5047437;28;20056;-65
2022/11/03 02:28:03;;;;;;;12.90;12.10;;;;;;;13.97;88.80;100565.69;5042958;28;20439;-64
2022/11/03 02:30:37;;;;;;;16.63;10.60;;;;;;;13.96;88.75;100547.19;5035393;28;20053;-64
2022/11/03 02:33:16;;;;;;;10.60;9.80;;;;;;;13.99;88.82;100562.59;5030911;28;20049;-64
2022/11/03 02:35:51;;;;;;;11.27;10.20;;;;;;;14.02;88.86;100556.38;5032513;28;20057;-64
2022/11/03 02:38:21;;;;;;;11.03;10.20;;;;;;;14.07;88.78;100552.66;5034495;28;20049;-63
2022/11/03 02:40:53;;;;;;;13.13;9.87;;;;;;;14.02;88.72;100549.91;5036712;28;20053;-65
2022/11/03 02:43:23;;;;;;;12.33;10.07;;;;;;;14.02;88.81;100550.75;5041081;28;20143;-64
2022/11/03 02:45:51;;;;;;;;;;;;;;;13.83;89.57;100558.34;5038389;28;20046;-64
2022/11/03 02:48:18;;;;;;;17.73;10.03;;;;;;;14.04;89.34;100558.88;5044476;28;19931;-63
2022/11/03 02:50:48;;;;;;;13.43;9.40;;;;;;;14.08;89.22;100543.91;5036226;28;20415;-63
2022/11/03 02:53:15;;;;;;;10.98;10.00;;;;;;;14.01;89.70;100542.63;5054608;28;20056;-63
2022/11/03 02:55:48;;;;;;;22.50;13.93;;;;;;;14.01;90.01;100551.06;5045085;28;20052;-64
2022/11/03 02:58:23;;;;;;;21.07;16.83;;;;;;;13.97;90.18;100534.81;5039475;28;20519;-62
2022/11/03 03:00:54;;;;;;;19.58;17.73;;;;;;;13.91;90.50;100541.66;5039299;28;20055;-64
2022/11/03 03:03:39;;;;;;;18.00;17.00;;;;;;;13.93;90.57;100546.97;5041534;28;20045;-64
2022/11/03 03:06:15;;;;;;;20.33;18.20;;;;;;;13.76;90.50;100525.03;5038499;28;20400;-64
2022/11/03 03:08:47;;;;;;;20.20;19.00;;;;;;;13.73;91.02;100531.25;5043109;28;20049;-64
2022/11/03 03:11:14;;;;;;;21.00;19.60;;;;;;;13.74;91.26;100533.75;5037606;28;20133;-64
2022/11/03 03:13:43;;;;;;;20.83;19.10;;;;;;;13.72;91.32;100521.16;5042749;28;20049;-64
2022/11/03 03:16:19;;;;;;;21.53;19.80;;;;;;;13.73;91.22;100520.00;5051525;28;20056;-64
2022/11/03 03:18:59;;;;;;;19.87;18.53;;;;;;;13.66;91.70;100511.97;5066839;28;20049;-65
2022/11/03 03:21:33;;;;;;;19.65;18.10;;;;;;;13.70;91.59;100526.22;5041665;28;20049;-65
2022/11/03 03:24:07;;;;;;;20.47;19.10;;;;;;;13.73;91.52;100528.44;5044593;28;20053;-65
2022/11/03 03:26:40;;;;;;;20.97;19.23;;;;;;;13.69;91.83;100527.38;5042057;28;20045;-66
2022/11/03 03:29:17;;;;;;;20.87;19.23;;;;;;;13.71;91.55;100533.53;5038691;28;20407;-65
2022/11/03 03:31:50;;;;;;;20.50;18.77;;;;;;;13.64;92.01;100517.06;5047905;28;20052;-64
2022/11/03 03:34:20;;;;;;;21.97;20.50;;;;;;;13.73;92.05;100520.00;5057552;28;20057;-64
2022/11/03 03:37:02;;;;;;;20.47;18.87;;;;;;;13.74;92.22;100521.69;5044257;28;20068;-65
2022/11/03 03:39:33;;;;;;;21.87;20.53;;;;;;;13.70;92.22;100503.78;5045577;28;20434;-65
2022/11/03 03:42:01;;;;;;;21.33;19.70;;;;;;;13.74;92.29;100513.25;5037102;28;20111;-64
2022/11/03 03:44:31;;;;;;;21.07;19.80;;;;;;;13.75;92.30;100520.56;5039989;28;20060;-65
2022/11/03 03:47:02;;;;;;;22.08;20.58;;;;;;;13.72;92.48;100523.97;5038189;28;20053;-65
2022/11/03 03:49:29;;;;;;;21.70;20.37;;;;;;;13.72;92.71;100509.94;5036524;28;20493;-64
2022/11/03 03:51:56;;;;;;;21.90;20.43;;;;;;;13.74;92.67;100502.03;5042671;28;20076;-63
2022/11/03 03:54:23;;;;;;;20.33;18.67;;;;;;;13.74;92.80;100510.44;5044082;28;20097;-64
2022/11/03 03:56:58;;;;;;;22.90;20.87;;;;;;;13.78;92.90;100500.31;5046799;28;20496;-64
2022/11/03 03:59:25;;;;;;;19.52;18.52;;;;;;;13.81;93.21;100499.72;5036589;28;20052;-64
2022/11/03 04:01:51;;;;;;;21.30;20.03;;;;;;;13.83;93.06;100497.41;5036231;28;20049;-64
2022/11/03 04:04:18;;;;;;;20.67;19.37;;;;;;;13.73;93.38;100497.56;5050352;28;20049;-65
2022/11/03 04:06:45;;;;;;;18.70;17.90;;;;;;;13.87;92.94;100504.09;5042140;28;20037;-66
2022/11/03 04:09:12;;;;;;;18.50;17.70;;;;;;;13.88;92.48;100507.72;5041274;28;20678;-64
2022/11/03 04:22:56;;;;;;;16.93;16.23;;;;;;;13.89;92.22;100507.44;5033345;28;20054;-64
2022/11/03 04:25:23;;;;;;;17.13;16.43;;;;;;;13.99;92.07;100517.69;5039200;28;20048;-63
2022/11/03 04:27:50;;;;;;;15.82;15.13;;;;;;;13.97;92.18;100514.31;5040574;28;20072;-65
2022/11/03 04:30:19;;;;;;;15.87;15.17;;;;;;;14.01;91.84;100529.41;5040703;28;20181;-65
2022/11/03 04:32:47;;;;;;;15.50;14.80;;;;;;;14.08;91.81;100529.03;5046312;28;20423;-64
2022/11/03 04:35:16;;;;;;;15.60;14.90;;;;;;;14.17;91.60;100515.97;5038385;28;20045;-63
2022/11/03 04:37:47;;;;;;;13.03;12.43;;;;;;;14.19;91.37;100519.34;5047015;28;20050;-64
2022/11/03 04:40:15;;;;;;;13.10;12.50;;;;;;;14.22;91.25;100518.69;5037043;28;20044;-64
2022/11/03 04:42:43;;;;;;;13.43;12.80;;;;;;;14.20;91.16;100501.34;5042045;28;20049;-64
2022/11/03 04:45:20;;;;;;;12.27;11.77;;;;;;;14.14;90.95;100469.69;5044366;28;20053;-64
2022/11/03 04:47:47;;;;;;;11.97;11.47;;;;;;;14.26;91.16;100510.53;5042271;28;20044;-65
2022/11/03 04:50:18;;;;;;;11.70;11.20;;;;;;;14.23;90.81;100506.34;5030349;28;20057;-64
2022/11/03 04:52:47;;;;;;;13.73;11.33;;;;;;;14.22;90.81;100499.03;5034253;28;20050;-65
2022/11/03 04:55:15;;;;;;;10.70;10.20;;;;;;;14.26;90.86;100491.69;5037493;28;20487;-64
2022/11/03 04:57:43;;;;;;;11.10;10.60;;;;;;;14.26;90.81;100476.81;5038459;28;20064;-64
2022/11/03 05:00:16;;;;;;;11.00;10.30;;;;;;;14.23;91.28;100467.03;5039738;28;20425;-64
2022/11/03 05:02:49;;;;;;;11.27;9.80;;;;;;;14.17;91.32;100471.06;5033621;28;20061;-63
2022/11/03 05:05:24;;;;;;;8.37;7.90;;;;;;;14.16;91.91;100494.66;5034864;28;20085;-64
2022/11/03 05:07:54;;;;;;;9.43;8.93;;;;;;;14.07;92.22;100493.69;5037527;28;20052;-64
2022/11/03 05:10:25;;;;;;;7.82;7.25;;;;;;;14.15;92.26;100492.97;5039680;28;20057;-64
2022/11/03 05:12:53;;;;;;;7.33;6.77;;;;;;;14.18;92.03;100478.31;5038381;28;20590;-63
2022/11/03 05:15:39;;;;;;;7.65;6.97;;;;;;;14.19;91.90;100499.66;5036112;28;20068;-64
2022/11/03 05:18:16;;;;;;;6.75;6.35;;;;;;;14.23;91.90;100501.56;5034866;28;20060;-63
2022/11/03 05:20:53;;;;;;;7.73;7.13;;;;;;;14.21;91.97;100474.91;5035981;28;20049;-63
2022/11/03 05:23:21;;;;;;;7.35;6.75;;;;;;;14.25;92.29;100475.94;5034538;28;20049;-64
2022/11/03 05:25:58;;;;;;;6.97;6.47;;;;;;;14.21;92.32;100492.59;5042731;28;20380;-65
2022/11/03 05:28:29;;;;;;;6.50;6.07;;;;;;;14.25;92.35;100475.94;5033901;28;20053;-65
2022/11/03 05:30:56;;;;;;;7.88;7.38;;;;;;;14.31;92.55;100499.19;5032789;28;20092;-64
2022/11/03 05:33:34;;;;;;;7.05;6.55;;;;;;;14.29;92.23;100487.41;5039024;28;20487;-65
2022/11/03 05:36:15;;;;;;;6.53;6.03;;;;;;;14.29;92.28;100464.94;5044036;28;20060;-65
2022/11/03 05:38:42;;;;;;;6.22;5.90;;;;;;;14.39;92.29;100493.72;5032410;28;20507;-65
2022/11/03 05:41:26;;;;;;;6.45;5.85;;;;;;;14.35;91.85;100470.16;5039456;28;20045;-64
2022/11/03 05:44:02;;;;;;;7.10;6.22;;;;;;;14.42;91.83;100469.75;5034566;28;20519;-63
2022/11/03 05:46:32;;;;;;;7.22;6.72;;;;;;;14.45;91.74;100475.59;5035950;28;20050;-64
2022/11/03 05:49:02;;;;;;;6.38;5.88;;;;;;;14.38;91.96;100486.41;5032644;28;20428;-65
2022/11/03 05:51:33;;;;;;;5.80;5.50;;;;;;;14.48;92.13;100478.94;5034527;28;20416;-65
2022/11/03 05:54:03;;;;;;;7.88;6.68;;;;;;;14.48;91.89;100462.09;5032323;28;20053;-63
2022/11/03 05:56:31;;;;;;;;;;;;;;;14.27;92.80;100473.69;5038949;28;20050;-64
2022/11/03 05:59:00;;;;;;;6.50;6.10;;;;;;;14.50;92.29;100477.53;5032905;28;19932;-64
2022/11/03 06:01:32;;;;;;;6.70;6.30;;;;;;;14.46;92.16;100470.81;5041735;28;20049;-64
2022/11/03 06:04:13;;;;;;;6.70;6.20;;;;;;;14.49;92.35;100472.16;5040583;28;20061;-63
2022/11/03 06:06:39;;;;;;;;;;;;;;;14.27;92.73;100456.84;5043114;28;20399;-63
2022/11/03 06:09:25;;;;;;;6.30;6.00;;;;;;;14.36;92.37;100446.56;5036049;28;19991;-61
2022/11/03 06:12:00;;;;;;;6.35;6.00;;;;;;;14.47;92.54;100458.44;5035076;28;20053;-63
2022/11/03 06:14:30;;;;;;;6.93;6.25;;;;;;;14.48;92.46;100439.59;5042978;28;20051;-62
2022/11/03 06:17:06;;;;;;;6.25;5.80;;;;;;;14.52;92.53;100449.09;5032455;28;20061;-62
2022/11/03 06:19:35;;;;;;;6.68;6.20;;;;;;;14.55;92.25;100423.19;5040348;28;20045;-63
2022/11/03 06:22:17;;;;;;;6.70;6.32;;;;;;;14.57;91.94;100469.53;5038603;28;20052;-62
2022/11/03 06:24:44;;;;;;;6.03;5.65;;;;;;;14.57;92.16;100437.78;5066741;28;20471;-64
2022/11/03 06:27:19;;;;;;;6.25;5.80;;;;;;;14.69;91.46;100466.19;5033834;28;20045;-63
2022/11/03 06:29:51;;;;;;;6.30;5.80;;;;;;;14.66;91.27;100435.91;5034116;28;20073;-64
2022/11/03 06:32:18;;;;;;;6.60;6.10;;;;;;;14.60;91.97;100473.72;5039151;28;20099;-63
2022/11/03 06:34:51;;;;;;;6.63;6.22;;;;;;;14.54;91.73;100444.03;5040178;28;20048;-63
2022/11/03 06:37:22;;;;;;;7.15;6.75;;;;;;;14.50;92.11;100449.44;5038796;28;20523;-62
2022/11/03 06:39:50;;;;;;;8.43;7.82;;;;;;;14.44;92.63;100457.06;5028940;28;20057;-62
2022/11/03 06:42:20;;;;;;;7.75;7.15;;;;;;;14.46;92.78;100448.31;5031113;28;20053;-65
2022/11/03 06:44:49;;;;;;;7.80;7.40;;;;;;;14.45;93.02;100441.06;5034581;28;20044;-62
2022/11/03 06:47:21;;;;;;;7.70;7.30;;;;;;;14.46;92.89;100454.81;5043677;28;20514;-62
2022/11/03 06:49:54;;;;;;;7.80;7.30;;;;;;;14.50;92.74;100448.56;5030946;28;20057;-63
2022/11/03 06:52:38;;;;;;;7.90;7.45;;;;;;;14.42;92.87;100444.47;5036022;28;20061;-64
2022/11/03 06:55:11;;;;;;;10.50;10.00;;;;;;;14.47;93.16;100438.78;5032901;28;20139;-63
2022/11/03 06:57:45;;;;;;;11.80;11.20;;;;;;;14.50;93.48;100443.81;5035186;28;20046;-63
2022/11/03 07:00:14;;;;;;;11.13;10.52;;;;;;;14.57;93.42;100463.09;5031264;28;20056;-63
2022/11/03 07:03:25;;;;;;;10.15;9.65;;;;;;;14.58;93.35;100443.09;5033055;28;20456;-63
2022/11/03 07:05:57;;;;;;;11.35;10.85;;;;;;;14.58;93.50;100442.25;5035968;28;20064;-63
2022/11/03 07:08:29;;;;;;;13.00;12.30;;;;;;;14.60;93.38;100459.66;5036574;28;20064;-63
2022/11/03 07:10:58;;;;;;;11.57;10.70;;;;;;;14.58;93.93;100456.31;5029737;28;20062;-63
2022/11/03 07:13:27;;;;;;;10.95;10.35;;;;;;;14.62;93.78;100457.34;5033337;28;20068;-62
2022/11/03 07:15:54;;;;;;;11.60;11.00;;;;;;;14.65;93.84;100466.00;5032749;28;20527;-62
2022/11/03 07:18:30;;;;;;;11.80;11.10;;;;;;;14.64;93.56;100471.94;5032138;28;20428;-63
2022/11/03 07:20:57;;;;;;;12.52;11.93;;;;;;;14.64;93.93;100474.75;5037949;28;20053;-63
2022/11/03 07:23:27;;;;;;;13.65;12.95;;;;;;;14.64;93.63;100474.75;5033537;28;20414;-64
2022/11/03 07:25:58;;;;;;;;;;;;;;;14.37;94.62;100490.34;5036488;28;20056;-63
2022/11/03 07:28:32;;;;;;;16.02;15.27;;;;;;;14.74;94.27;100501.84;5034088;28;19921;-62
2022/11/03 07:31:01;;;;;;;13.00;12.10;;;;;;;14.95;93.91;100505.09;5029489;28;20427;-63
2022/11/03 07:33:30;;;;;;;13.73;13.00;;;;;;;15.05;93.66;100499.25;5036238;28;20060;-64
2022/11/03 07:35:59;;;;;;;12.90;12.30;;;;;;;15.10;93.30;100524.44;5031596;28;20048;-63
2022/11/03 07:38:45;;;;;;;14.45;13.75;;;;;;;15.10;92.81;100527.28;5040853;28;20049;-63
2022/11/03 07:41:18;;;;;;;14.02;13.02;;;;;;;15.03;92.70;100530.50;5038792;28;20053;-65
2022/11/03 07:43:55;;;;;;;14.38;13.68;;;;;;;15.07;92.81;100527.88;5040481;28;20053;-64
2022/11/03 07:46:24;;;;;;;13.73;12.93;;;;;;;15.09;92.90;100528.41;5039885;28;20056;-64
2022/11/03 07:48:55;;;;;;;13.52;12.85;;;;;;;15.03;92.65;100524.88;5031602;28;20419;-64
2022/11/03 07:51:31;;;;;;;13.77;13.07;;;;;;;15.04;92.63;100522.88;5035537;28;20064;-63
2022/11/03 07:54:08;;;;;;;13.63;13.02;;;;;;;15.06;92.84;100546.75;5046623;28;20057;-64
2022/11/03 07:56:40;;;;;;;15.05;14.25;;;;;;;15.08;93.02;100540.81;5025781;28;20052;-63
2022/11/03 07:59:12;;;;;;;12.55;11.95;;;;;;;15.05;92.87;100524.56;5037263;28;20065;-63
2022/11/03 08:01:41;;;;;;;11.90;11.40;;;;;;;15.03;93.08;100530.50;5030536;28;20059;-62
2022/11/03 08:04:37;;;;;;;11.60;11.10;;;;;;;14.88;92.81;100540.06;5034131;28;20074;-62
2022/11/03 08:07:04;;;;;;;13.60;12.90;;;;;;;14.96;93.29;100526.44;5042185;28;20049;-63
2022/11/03 08:09:31;;;;;;;12.32;11.73;;;;;;;14.98;93.25;100538.22;5038465;28;20061;-62
2022/11/03 08:11:59;;;;;;;11.73;11.13;;;;;;;15.00;93.12;100538.72;5041971;28;20057;-62
2022/11/03 08:14:26;;;;;;;11.90;11.30;;;;;;;15.05;93.09;100541.44;5044763;28;20060;-63
2022/11/03 08:16:53;;;;;;;12.98;12.27;;;;;;;15.02;93.16;100542.06;5038875;28;20060;-62
2022/11/03 08:19:20;;;;;;;12.15;11.23;;;;;;;15.06;93.12;100558.00;5042897;28;20484;-63
2022/11/03 08:21:46;;;;;;;13.25;12.35;;;;;;;15.10;93.02;100566.66;5043123;28;20041;-62
2022/11/03 08:24:13;;;;;;;10.70;10.10;;;;;;;15.08;93.10;100560.50;5049188;28;20456;-63
2022/11/03 08:26:40;;;;;;;13.15;12.45;;;;;;;15.13;93.03;100578.09;5040139;28;20061;-62
2022/11/03 08:29:07;;;;;;;12.50;11.90;;;;;;;15.20;93.01;100577.69;5037251;28;20048;-64
2022/11/03 08:31:33;;;;;;;13.52;12.82;;;;;;;15.25;93.21;100585.22;5049100;28;20048;-64
2022/11/03 08:34:00;;;;;;;12.43;11.70;;;;;;;15.29;92.91;100584.28;5039619;28;20518;-64
2022/11/03 08:36:27;;;;;;;13.30;12.30;;;;;;;15.54;93.17;100590.53;5026681;28;20064;-63
2022/11/03 08:38:54;;;;;;;13.50;12.80;;;;;;;15.59;92.94;100594.09;5032429;28;20041;-63
2022/11/03 08:41:21;;;;;;;13.88;13.10;;;;;;;15.53;92.96;100588.88;5035754;28;20136;-64
2022/11/03 08:43:47;;;;;;;13.80;13.10;;;;;;;15.45;92.67;100589.59;5036837;28;20064;-66
2022/11/03 08:46:14;;;;;;;14.45;13.50;;;;;;;15.43;92.89;100589.91;5033585;28;20392;-64
2022/11/03 08:48:44;;;;;;;14.15;13.15;;;;;;;15.49;92.86;100585.03;5038057;28;20046;-64
2022/11/03 08:51:12;;;;;;;13.82;13.02;;;;;;;15.51;93.02;100591.16;5033267;28;20111;-65
2022/11/03 08:53:41;;;;;;;14.85;13.90;;;;;;;15.62;92.96;100595.41;5035294;28;20444;-64
2022/11/03 08:56:09;;;;;;;13.80;13.15;;;;;;;15.67;92.80;100594.53;5032852;28;20388;-63
2022/11/03 08:58:40;;;;;;;13.18;12.48;;;;;;;15.65;92.88;100594.78;5039343;28;20052;-64
2022/11/03 09:01:07;;;;;;;13.10;12.30;;;;;;;15.65;93.03;100606.06;5037703;28;20057;-64
2022/11/03 09:03:33;;;;;;;14.75;13.95;;;;;;;15.67;93.01;100617.88;5042222;28;20063;-64
2022/11/03 09:06:00;;;;;;;12.48;11.75;;;;;;;15.71;92.81;100620.91;5040482;28;20561;-64
2022/11/03 09:08:27;;;;;;;13.73;11.88;;;;;;;15.75;92.86;100619.94;5037711;28;20045;-64
2022/11/03 09:11:14;;;;;;;12.63;11.95;;;;;;;15.80;92.90;100610.59;5039726;28;20427;-64
2022/11/03 09:13:41;;;;;;;13.88;12.98;;;;;;;15.84;92.66;100612.44;5032301;28;20575;-64
2022/11/03 09:16:08;;;;;;;12.93;12.02;;;;;;;15.93;92.46;100622.97;5034740;28;20076;-65
2022/11/03 09:18:34;;;;;;;14.32;13.32;;;;;;;15.98;92.71;100634.97;5021588;28;20108;-63
2022/11/03 09:21:01;;;;;;;13.27;12.18;;;;;;;15.93;92.37;100621.00;5028894;28;20064;-65
2022/11/03 09:23:28;;;;;;;12.50;11.60;;;;;;;15.96;92.54;100625.16;5042832;28;20052;-67
2022/11/03 09:25:55;;;;;;;12.23;11.52;;;;;;;15.92;92.65;100624.13;5038068;28;20045;-63
2022/11/03 09:28:22;;;;;;;13.82;12.45;;;;;;;15.94;92.78;100633.94;5034811;28;20049;-64
2022/11/03 09:30:48;;;;;;;13.90;12.85;;;;;;;15.94;92.65;100633.94;5038712;28;20049;-64
2022/11/03 09:33:15;;;;;;;12.75;11.95;;;;;;;15.97;92.82;100632.47;5037718;28;20077;-63
2022/11/03 09:35:42;;;;;;;16.42;15.10;;;;;;;15.96;92.99;100625.97;5041374;28;20049;-63
2022/11/03 09:38:09;;;;;;;14.25;13.43;;;;;;;15.97;92.50;100626.84;5033861;28;20404;-64
2022/11/03 09:40:36;;;;;;;14.82;13.27;;;;;;;15.95;92.69;100621.50;5035783;28;20057;-65
2022/11/03 09:43:03;;;;;;;14.40;13.60;;;;;;;15.98;92.96;100622.88;5041717;28;20098;-66
2022/11/03 09:45:30;;;;;;;16.05;14.63;;;;;;;16.01;92.91;100617.44;5034543;28;20044;-64
2022/11/03 09:47:57;;;;;;;15.02;14.02;;;;;;;16.16;93.15;100623.88;5046336;28;20068;-63
2022/11/03 09:50:24;;;;;;;16.35;15.35;;;;;;;16.26;93.17;100618.81;5036201;28;20045;-65
2022/11/03 09:52:53;;;;;;;14.55;13.63;;;;;;;16.27;92.74;100622.47;5031931;28;20055;-63
2022/11/03 09:55:25;;;;;;;14.45;13.48;;;;;;;16.23;92.68;100618.63;5035502;28;20528;-63
2022/11/03 09:57:54;;;;;;;14.75;13.65;;;;;;;16.31;93.02;100630.00;5032866;28;20065;-63
2022/11/03 10:00:23;;;;;;;14.50;13.60;;;;;;;16.32;92.60;100628.84;5026560;28;20447;-62
2022/11/03 10:02:50;;;;;;;15.85;14.32;;;;;;;16.34;92.84;100617.22;5038118;28;20398;-63
2022/11/03 10:05:25;;;;;;;14.90;13.30;;;;;;;16.34;92.63;100609.63;5037266;28;20040;-64
2022/11/03 10:07:57;;;;;;;14.50;13.35;;;;;;;16.47;92.76;100621.16;5031956;28;20056;-63
2022/11/03 10:10:25;;;;;;;15.23;13.82;;;;;;;16.53;92.78;100617.06;5033559;28;20055;-64
2022/11/03 10:12:52;;;;;;;13.90;12.90;;;;;;;16.55;92.85;100620.41;5036025;28;20152;-63
2022/11/03 10:15:22;;;;;;;15.00;13.95;;;;;;;16.59;92.83;100616.63;5037896;28;20523;-63
2022/11/03 10:17:50;;;;;;;14.52;13.32;;;;;;;16.55;92.78;100612.78;5042010;28;20045;-64
2022/11/03 10:20:20;;;;;;;;;;;;;;;16.31;93.09;100621.53;5030278;28;20057;-63
2022/11/03 10:22:51;;;;;;;13.60;12.30;;;;;;;16.52;92.57;100621.88;5038898;28;19931;-64
2022/11/03 10:25:36;;;;;;;14.63;13.40;;;;;;;16.47;92.46;100612.72;5033370;28;20057;-63
2022/11/03 10:28:22;;;;;;;15.52;14.43;;;;;;;16.53;92.24;100619.91;5035508;28;20048;-64
2022/11/03 10:31:07;;;;;;;14.23;12.93;;;;;;;16.62;92.54;100620.81;5034571;28;20052;-64
2022/11/03 10:33:59;;;;;;;14.43;13.23;;;;;;;16.61;92.68;100624.75;5032281;28;20510;-63
2022/11/03 10:36:29;;;;;;;15.75;14.32;;;;;;;16.75;92.59;100619.09;5045778;28;20048;-64
2022/11/03 10:38:56;;;;;;;14.35;13.10;;;;;;;16.77;92.55;100623.25;5040068;28;20389;-63
2022/11/03 10:41:31;;;;;;;13.88;12.73;;;;;;;16.77;92.34;100614.81;5032875;28;20053;-64
2022/11/03 10:44:20;;;;;;;16.77;15.10;;;;;;;16.87;92.41;100627.00;5031803;28;20048;-65
2022/11/03 10:47:01;;;;;;;17.03;13.23;;;;;;;16.86;92.08;100642.25;5027950;28;20441;-64
2022/11/03 10:49:34;;;;;;;17.38;13.30;;;;;;;16.96;92.02;100640.00;5031492;28;20305;-64
2022/11/03 10:52:19;;;;;;;14.18;12.88;;;;;;;17.01;92.67;100633.38;5041624;28;20123;-64
2022/11/03 10:54:48;;;;;;;17.50;13.50;;;;;;;17.18;92.41;100643.94;5036897;28;20060;-64
2022/11/03 10:57:16;;;;;;;14.90;13.57;;;;;;;17.24;92.23;100637.03;5042942;28;20415;-63
2022/11/03 10:59:45;;;;;;;16.58;13.32;;;;;;;17.28;92.42;100647.31;5036148;28;20045;-64
2022/11/03 11:02:35;;;;;;;13.93;12.48;;;;;;;17.26;92.06;100641.19;5031356;28;20147;-63
2022/11/03 11:05:08;;;;;;;;;;;;;;;17.05;93.09;100637.22;5036672;28;20053;-63
2022/11/03 11:07:40;;;;;;;14.15;12.68;;;;;;;17.26;92.31;100638.38;5037482;28;19929;-64
2022/11/03 11:10:12;;;;;;;18.70;14.32;;;;;;;17.26;92.24;100641.19;5040257;28;20057;-62
2022/11/03 11:12:58;;;;;;;17.10;14.00;;;;;;;17.24;92.45;100654.78;5041989;28;20403;-63
2022/11/03 11:15:42;;;;;;;17.60;14.23;;;;;;;17.23;92.23;100653.13;5044776;28;20053;-64
2022/11/03 11:18:09;;;;;;;19.13;15.73;;;;;;;17.32;92.07;100649.50;5043387;28;20052;-64
2022/11/03 11:20:40;;;;;;;18.73;16.38;;;;;;;17.33;92.01;100651.16;5047643;28;20143;-64
2022/11/03 11:23:36;;;;;;;21.20;14.65;;;;;;;17.27;92.11;100653.31;5048105;28;20132;-64
2022/11/03 11:26:09;;;;;;;17.10;14.85;;;;;;;17.36;91.81;100653.34;5042279;28;20069;-63
2022/11/03 11:28:37;;;;;;;15.52;13.20;;;;;;;17.38;92.00;100667.97;5040848;28;20076;-64
2022/11/03 11:31:25;;;;;;;20.15;13.40;;;;;;;17.36;91.95;100665.47;5040626;28;20541;-64
2022/11/03 11:34:07;;;;;;;17.05;13.07;;;;;;;17.39;91.80;100675.28;5044360;28;20071;-64
2022/11/03 11:36:44;;;;;;;16.48;12.02;;;;;;;17.47;91.80;100671.66;5049871;28;20482;-64
2022/11/03 11:39:23;;;;;;;20.13;11.90;;;;;;;17.43;91.57;100673.47;5043453;28;20042;-63
2022/11/03 11:42:17;;;;;;;16.35;10.85;;;;;;;17.34;91.62;100670.63;5046535;28;20060;-63
2022/11/03 11:47:24;;;;;;;14.10;12.25;;;;;;;17.45;91.74;100665.53;5043138;28;20057;-63
2022/11/03 11:50:06;;;;;;;14.82;10.57;;;;;;;17.46;91.77;100670.84;5040614;28;20045;-64
2022/11/03 11:52:54;;;;;;;20.80;11.88;;;;;;;17.53;91.46;100664.72;5050616;28;20084;-64